sensor_id;sensor_type;location;lat;lon;timestamp;P1;durP1;ratioP1;P2;durP2;ratioP2
29814;SDS011;16708;50.426;7.664;2023-07-24T00:02:58;6.90;;;2.80;;
29814;SDS011;16708;50.426;7.664;2023-07-24T00:07:53;5.50;;;2.80;;
29814;SDS011;16708;50.426;7.664;2023-07-24T00:12:48;5.20;;;2.90;;
29814;SDS011;16708;50.426;7.664;2023-07-24T00:17:40;5.40;;;3.10;;
29814;SDS011;16708;50.426;7.664;2023-07-24T00:22:34;5.20;;;2.70;;
29814;SDS011;16708;50.426;7.664;2023-07-24T00:27:28;5.70;;;2.90;;
29814;SDS011;16708;50.426;7.664;2023-07-24T00:32:23;3.20;;;2.40;;
29814;SDS011;16708;50.426;7.664;2023-07-24T00:37:18;3.80;;;2.70;;
29814;SDS011;16708;50.426;7.664;2023-07-24T00:42:12;5.00;;;2.50;;
29814;SDS011;16708;50.426;7.664;2023-07-24T00:47:07;5.10;;;2.60;;
29814;SDS011;16708;50.426;7.664;2023-07-24T00:52:01;5.10;;;3.00;;
29814;SDS011;16708;50.426;7.664;2023-07-24T00:56:56;4.90;;;2.90;;
29814;SDS011;16708;50.426;7.664;2023-07-24T01:01:50;4.10;;;2.50;;
29814;SDS011;16708;50.426;7.664;2023-07-24T01:06:44;4.00;;;2.50;;
29814;SDS011;16708;50.426;7.664;2023-07-24T01:11:39;4.90;;;2.80;;
29814;SDS011;16708;50.426;7.664;2023-07-24T01:16:33;4.50;;;2.70;;
29814;SDS011;16708;50.426;7.664;2023-07-24T01:26:22;5.30;;;2.50;;
29814;SDS011;16708;50.426;7.664;2023-07-24T01:31:16;4.10;;;2.80;;
29814;SDS011;16708;50.426;7.664;2023-07-24T01:36:11;5.40;;;2.80;;
29814;SDS011;16708;50.426;7.664;2023-07-24T01:41:05;5.50;;;2.90;;
29814;SDS011;16708;50.426;7.664;2023-07-24T01:45:59;5.60;;;3.20;;
29814;SDS011;16708;50.426;7.664;2023-07-24T01:50:54;4.40;;;2.90;;
29814;SDS011;16708;50.426;7.664;2023-07-24T01:55:49;7.00;;;3.50;;
29814;SDS011;16708;50.426;7.664;2023-07-24T02:00:43;5.50;;;3.10;;
29814;SDS011;16708;50.426;7.664;2023-07-24T02:05:37;6.70;;;3.90;;
29814;SDS011;16708;50.426;7.664;2023-07-24T02:10:30;5.50;;;3.20;;
29814;SDS011;16708;50.426;7.664;2023-07-24T02:15:24;4.70;;;3.40;;
29814;SDS011;16708;50.426;7.664;2023-07-24T02:20:18;6.10;;;3.40;;
29814;SDS011;16708;50.426;7.664;2023-07-24T02:25:13;7.50;;;3.80;;
29814;SDS011;16708;50.426;7.664;2023-07-24T02:30:07;6.90;;;3.40;;
29814;SDS011;16708;50.426;7.664;2023-07-24T02:35:05;5.10;;;3.20;;
29814;SDS011;16708;50.426;7.664;2023-07-24T02:39:56;5.40;;;3.70;;
29814;SDS011;16708;50.426;7.664;2023-07-24T02:44:50;5.90;;;3.80;;
29814;SDS011;16708;50.426;7.664;2023-07-24T02:49:44;7.20;;;4.20;;
29814;SDS011;16708;50.426;7.664;2023-07-24T02:54:38;6.20;;;3.50;;
29814;SDS011;16708;50.426;7.664;2023-07-24T02:59:32;5.70;;;3.40;;
29814;SDS011;16708;50.426;7.664;2023-07-24T03:04:26;5.20;;;3.30;;
29814;SDS011;16708;50.426;7.664;2023-07-24T03:09:21;7.00;;;3.90;;
29814;SDS011;16708;50.426;7.664;2023-07-24T03:14:15;9.20;;;3.90;;
29814;SDS011;16708;50.426;7.664;2023-07-24T03:24:01;7.80;;;3.60;;
29814;SDS011;16708;50.426;7.664;2023-07-24T03:28:55;7.90;;;3.70;;
29814;SDS011;16708;50.426;7.664;2023-07-24T03:33:50;8.10;;;4.10;;
29814;SDS011;16708;50.426;7.664;2023-07-24T03:38:44;7.30;;;4.00;;
29814;SDS011;16708;50.426;7.664;2023-07-24T03:43:39;7.40;;;4.10;;
29814;SDS011;16708;50.426;7.664;2023-07-24T03:48:33;7.20;;;4.10;;
29814;SDS011;16708;50.426;7.664;2023-07-24T03:53:27;5.20;;;3.40;;
29814;SDS011;16708;50.426;7.664;2023-07-24T03:58:22;7.70;;;3.50;;
29814;SDS011;16708;50.426;7.664;2023-07-24T04:03:16;8.90;;;3.70;;
29814;SDS011;16708;50.426;7.664;2023-07-24T04:08:11;7.20;;;4.10;;
29814;SDS011;16708;50.426;7.664;2023-07-24T04:13:05;6.10;;;3.60;;
29814;SDS011;16708;50.426;7.664;2023-07-24T04:17:59;7.10;;;3.50;;
29814;SDS011;16708;50.426;7.664;2023-07-24T04:22:55;6.90;;;3.50;;
29814;SDS011;16708;50.426;7.664;2023-07-24T04:27:48;5.90;;;3.50;;
29814;SDS011;16708;50.426;7.664;2023-07-24T04:32:43;8.70;;;3.80;;
29814;SDS011;16708;50.426;7.664;2023-07-24T04:37:38;8.30;;;3.50;;
29814;SDS011;16708;50.426;7.664;2023-07-24T04:42:31;5.50;;;2.80;;
29814;SDS011;16708;50.426;7.664;2023-07-24T04:47:26;5.00;;;3.20;;
29814;SDS011;16708;50.426;7.664;2023-07-24T04:52:21;7.40;;;3.80;;
29814;SDS011;16708;50.426;7.664;2023-07-24T04:57:15;6.40;;;3.30;;
29814;SDS011;16708;50.426;7.664;2023-07-24T05:02:08;4.30;;;3.00;;
29814;SDS011;16708;50.426;7.664;2023-07-24T05:07:03;7.30;;;3.20;;
29814;SDS011;16708;50.426;7.664;2023-07-24T05:11:56;5.40;;;3.10;;
29814;SDS011;16708;50.426;7.664;2023-07-24T05:16:51;5.90;;;2.90;;
29814;SDS011;16708;50.426;7.664;2023-07-24T05:21:45;6.30;;;3.50;;
29814;SDS011;16708;50.426;7.664;2023-07-24T05:26:39;6.60;;;3.20;;
29814;SDS011;16708;50.426;7.664;2023-07-24T05:31:33;6.30;;;3.20;;
29814;SDS011;16708;50.426;7.664;2023-07-24T05:36:28;5.10;;;3.20;;
29814;SDS011;16708;50.426;7.664;2023-07-24T05:41:22;7.20;;;3.30;;
29814;SDS011;16708;50.426;7.664;2023-07-24T05:46:17;6.60;;;3.30;;
29814;SDS011;16708;50.426;7.664;2023-07-24T05:51:12;5.70;;;3.30;;
29814;SDS011;16708;50.426;7.664;2023-07-24T05:56:06;6.20;;;3.20;;
29814;SDS011;16708;50.426;7.664;2023-07-24T06:01:00;5.10;;;3.50;;
29814;SDS011;16708;50.426;7.664;2023-07-24T06:05:55;5.60;;;3.50;;
29814;SDS011;16708;50.426;7.664;2023-07-24T06:10:50;7.90;;;3.20;;
29814;SDS011;16708;50.426;7.664;2023-07-24T06:15:44;7.20;;;3.60;;
29814;SDS011;16708;50.426;7.664;2023-07-24T06:20:39;6.00;;;3.50;;
29814;SDS011;16708;50.426;7.664;2023-07-24T06:25:33;6.20;;;3.60;;
29814;SDS011;16708;50.426;7.664;2023-07-24T06:30:28;5.90;;;3.50;;
29814;SDS011;16708;50.426;7.664;2023-07-24T06:35:22;6.40;;;3.70;;
29814;SDS011;16708;50.426;7.664;2023-07-24T06:40:17;6.40;;;3.50;;
29814;SDS011;16708;50.426;7.664;2023-07-24T06:45:11;8.50;;;3.70;;
29814;SDS011;16708;50.426;7.664;2023-07-24T06:50:05;7.80;;;4.30;;
29814;SDS011;16708;50.426;7.664;2023-07-24T06:55:00;6.50;;;3.80;;
29814;SDS011;16708;50.426;7.664;2023-07-24T06:59:54;6.00;;;3.50;;
29814;SDS011;16708;50.426;7.664;2023-07-24T07:04:49;7.10;;;3.60;;
29814;SDS011;16708;50.426;7.664;2023-07-24T07:09:43;7.30;;;3.40;;
29814;SDS011;16708;50.426;7.664;2023-07-24T07:14:38;6.70;;;3.50;;
29814;SDS011;16708;50.426;7.664;2023-07-24T07:19:32;8.30;;;3.50;;
29814;SDS011;16708;50.426;7.664;2023-07-24T07:24:26;8.10;;;3.60;;
29814;SDS011;16708;50.426;7.664;2023-07-24T07:29:20;6.20;;;3.30;;
29814;SDS011;16708;50.426;7.664;2023-07-24T07:34:15;6.40;;;3.60;;
29814;SDS011;16708;50.426;7.664;2023-07-24T07:39:09;7.50;;;3.40;;
29814;SDS011;16708;50.426;7.664;2023-07-24T07:44:04;6.70;;;3.30;;
29814;SDS011;16708;50.426;7.664;2023-07-24T07:48:57;6.60;;;3.40;;
29814;SDS011;16708;50.426;7.664;2023-07-24T07:53:51;8.20;;;3.50;;
29814;SDS011;16708;50.426;7.664;2023-07-24T07:58:45;8.20;;;4.20;;
29814;SDS011;16708;50.426;7.664;2023-07-24T08:03:39;5.70;;;3.50;;
29814;SDS011;16708;50.426;7.664;2023-07-24T08:08:34;6.70;;;3.50;;
29814;SDS011;16708;50.426;7.664;2023-07-24T08:13:28;7.50;;;3.60;;
29814;SDS011;16708;50.426;7.664;2023-07-24T08:18:23;7.80;;;3.40;;
29814;SDS011;16708;50.426;7.664;2023-07-24T08:23:19;4.90;;;3.30;;
29814;SDS011;16708;50.426;7.664;2023-07-24T08:28:16;6.70;;;3.40;;
29814;SDS011;16708;50.426;7.664;2023-07-24T08:33:08;5.50;;;3.50;;
29814;SDS011;16708;50.426;7.664;2023-07-24T08:38:03;6.10;;;3.50;;
29814;SDS011;16708;50.426;7.664;2023-07-24T08:42:57;5.50;;;3.10;;
29814;SDS011;16708;50.426;7.664;2023-07-24T08:47:52;5.80;;;3.20;;
29814;SDS011;16708;50.426;7.664;2023-07-24T08:52:46;6.70;;;3.60;;
29814;SDS011;16708;50.426;7.664;2023-07-24T08:57:41;4.90;;;3.20;;
29814;SDS011;16708;50.426;7.664;2023-07-24T09:02:35;5.50;;;3.20;;
29814;SDS011;16708;50.426;7.664;2023-07-24T09:07:27;5.20;;;3.20;;
29814;SDS011;16708;50.426;7.664;2023-07-24T09:12:22;5.10;;;3.10;;
29814;SDS011;16708;50.426;7.664;2023-07-24T09:17:17;5.70;;;3.00;;
29814;SDS011;16708;50.426;7.664;2023-07-24T09:22:12;7.50;;;3.00;;
29814;SDS011;16708;50.426;7.664;2023-07-24T09:27:07;5.40;;;2.80;;
29814;SDS011;16708;50.426;7.664;2023-07-24T09:32:01;4.70;;;2.90;;
29814;SDS011;16708;50.426;7.664;2023-07-24T09:36:56;5.80;;;2.90;;
29814;SDS011;16708;50.426;7.664;2023-07-24T09:41:50;5.80;;;3.00;;
29814;SDS011;16708;50.426;7.664;2023-07-24T09:46:45;4.60;;;2.90;;
29814;SDS011;16708;50.426;7.664;2023-07-24T09:51:39;4.40;;;2.90;;
29814;SDS011;16708;50.426;7.664;2023-07-24T09:56:33;5.40;;;3.10;;
29814;SDS011;16708;50.426;7.664;2023-07-24T10:01:28;8.20;;;3.30;;
29814;SDS011;16708;50.426;7.664;2023-07-24T10:06:22;6.50;;;3.10;;
29814;SDS011;16708;50.426;7.664;2023-07-24T10:11:17;4.00;;;2.80;;
29814;SDS011;16708;50.426;7.664;2023-07-24T10:16:12;5.30;;;2.90;;
29814;SDS011;16708;50.426;7.664;2023-07-24T10:21:06;5.60;;;3.30;;
29814;SDS011;16708;50.426;7.664;2023-07-24T10:26:00;4.30;;;3.00;;
29814;SDS011;16708;50.426;7.664;2023-07-24T10:35:49;4.40;;;3.00;;
29814;SDS011;16708;50.426;7.664;2023-07-24T10:40:43;4.50;;;3.30;;
29814;SDS011;16708;50.426;7.664;2023-07-24T10:45:38;4.60;;;3.10;;
29814;SDS011;16708;50.426;7.664;2023-07-24T10:50:34;4.20;;;2.80;;
29814;SDS011;16708;50.426;7.664;2023-07-24T10:55:29;4.00;;;3.10;;
29814;SDS011;16708;50.426;7.664;2023-07-24T11:00:23;7.20;;;3.10;;
29814;SDS011;16708;50.426;7.664;2023-07-24T11:05:14;5.00;;;3.50;;
29814;SDS011;16708;50.426;7.664;2023-07-24T11:10:08;7.30;;;3.70;;
29814;SDS011;16708;50.426;7.664;2023-07-24T11:24:53;6.80;;;3.70;;
29814;SDS011;16708;50.426;7.664;2023-07-24T11:29:47;5.70;;;3.60;;
29814;SDS011;16708;50.426;7.664;2023-07-24T11:34:40;5.40;;;3.70;;
29814;SDS011;16708;50.426;7.664;2023-07-24T11:39:34;6.50;;;4.00;;
29814;SDS011;16708;50.426;7.664;2023-07-24T11:44:28;6.30;;;3.70;;
29814;SDS011;16708;50.426;7.664;2023-07-24T11:49:20;8.80;;;5.70;;
29814;SDS011;16708;50.426;7.664;2023-07-24T11:54:15;7.20;;;3.80;;
29814;SDS011;16708;50.426;7.664;2023-07-24T11:59:11;11.70;;;3.70;;
29814;SDS011;16708;50.426;7.664;2023-07-24T12:04:05;5.90;;;3.50;;
29814;SDS011;16708;50.426;7.664;2023-07-24T12:08:59;5.60;;;3.60;;
29814;SDS011;16708;50.426;7.664;2023-07-24T12:13:53;6.80;;;3.60;;
29814;SDS011;16708;50.426;7.664;2023-07-24T12:18:46;9.30;;;3.40;;
29814;SDS011;16708;50.426;7.664;2023-07-24T12:23:40;8.90;;;3.40;;
29814;SDS011;16708;50.426;7.664;2023-07-24T12:28:34;7.30;;;3.40;;
29814;SDS011;16708;50.426;7.664;2023-07-24T12:33:27;7.40;;;3.40;;
29814;SDS011;16708;50.426;7.664;2023-07-24T12:38:21;7.10;;;3.50;;
29814;SDS011;16708;50.426;7.664;2023-07-24T12:43:13;8.40;;;3.80;;
29814;SDS011;16708;50.426;7.664;2023-07-24T12:48:07;9.20;;;4.30;;
29814;SDS011;16708;50.426;7.664;2023-07-24T12:53:01;7.30;;;3.90;;
29814;SDS011;16708;50.426;7.664;2023-07-24T12:57:57;7.50;;;3.40;;
29814;SDS011;16708;50.426;7.664;2023-07-24T13:03:01;6.70;;;3.50;;
29814;SDS011;16708;50.426;7.664;2023-07-24T13:07:47;7.70;;;3.10;;
29814;SDS011;16708;50.426;7.664;2023-07-24T13:12:41;6.30;;;3.10;;
29814;SDS011;16708;50.426;7.664;2023-07-24T13:17:35;5.10;;;2.80;;
29814;SDS011;16708;50.426;7.664;2023-07-24T13:22:29;5.00;;;2.90;;
29814;SDS011;16708;50.426;7.664;2023-07-24T13:27:24;5.80;;;2.40;;
29814;SDS011;16708;50.426;7.664;2023-07-24T13:32:21;4.80;;;2.30;;
29814;SDS011;16708;50.426;7.664;2023-07-24T13:37:16;2.90;;;2.30;;
29814;SDS011;16708;50.426;7.664;2023-07-24T13:42:11;4.40;;;2.30;;
29814;SDS011;16708;50.426;7.664;2023-07-24T13:47:05;3.60;;;2.20;;
29814;SDS011;16708;50.426;7.664;2023-07-24T13:51:58;3.30;;;2.10;;
29814;SDS011;16708;50.426;7.664;2023-07-24T13:56:51;4.00;;;2.30;;
29814;SDS011;16708;50.426;7.664;2023-07-24T14:01:45;3.40;;;2.10;;
29814;SDS011;16708;50.426;7.664;2023-07-24T14:06:39;2.90;;;1.50;;
29814;SDS011;16708;50.426;7.664;2023-07-24T14:11:34;2.40;;;1.70;;
29814;SDS011;16708;50.426;7.664;2023-07-24T14:16:30;3.00;;;1.70;;
29814;SDS011;16708;50.426;7.664;2023-07-24T14:21:26;1.50;;;1.30;;
29814;SDS011;16708;50.426;7.664;2023-07-24T14:26:21;1.90;;;1.20;;
29814;SDS011;16708;50.426;7.664;2023-07-24T14:31:16;2.90;;;1.20;;
29814;SDS011;16708;50.426;7.664;2023-07-24T14:36:12;1.00;;;0.90;;
29814;SDS011;16708;50.426;7.664;2023-07-24T14:41:06;2.90;;;1.10;;
29814;SDS011;16708;50.426;7.664;2023-07-24T14:46:00;1.90;;;1.10;;
29814;SDS011;16708;50.426;7.664;2023-07-24T14:50:52;1.20;;;1.10;;
29814;SDS011;16708;50.426;7.664;2023-07-24T14:55:46;2.70;;;1.10;;
29814;SDS011;16708;50.426;7.664;2023-07-24T15:00:39;2.10;;;1.10;;
29814;SDS011;16708;50.426;7.664;2023-07-24T15:05:32;1.10;;;1.00;;
29814;SDS011;16708;50.426;7.664;2023-07-24T15:10:34;1.70;;;1.10;;
29814;SDS011;16708;50.426;7.664;2023-07-24T15:15:20;1.80;;;1.10;;
29814;SDS011;16708;50.426;7.664;2023-07-24T15:20:14;1.20;;;1.00;;
29814;SDS011;16708;50.426;7.664;2023-07-24T15:25:08;2.10;;;1.10;;
29814;SDS011;16708;50.426;7.664;2023-07-24T15:30:02;2.50;;;1.20;;
29814;SDS011;16708;50.426;7.664;2023-07-24T15:34:56;1.40;;;1.10;;
29814;SDS011;16708;50.426;7.664;2023-07-24T15:39:50;1.60;;;0.90;;
29814;SDS011;16708;50.426;7.664;2023-07-24T15:44:45;1.80;;;1.00;;
29814;SDS011;16708;50.426;7.664;2023-07-24T15:49:39;1.70;;;1.10;;
29814;SDS011;16708;50.426;7.664;2023-07-24T15:54:34;1.80;;;1.00;;
29814;SDS011;16708;50.426;7.664;2023-07-24T15:59:28;3.90;;;1.00;;
29814;SDS011;16708;50.426;7.664;2023-07-24T16:04:22;2.30;;;0.90;;
29814;SDS011;16708;50.426;7.664;2023-07-24T16:09:17;1.50;;;0.90;;
29814;SDS011;16708;50.426;7.664;2023-07-24T16:14:12;1.30;;;0.80;;
29814;SDS011;16708;50.426;7.664;2023-07-24T16:19:05;1.70;;;1.00;;
29814;SDS011;16708;50.426;7.664;2023-07-24T16:24:00;2.10;;;1.30;;
29814;SDS011;16708;50.426;7.664;2023-07-24T16:28:54;2.90;;;1.30;;
29814;SDS011;16708;50.426;7.664;2023-07-24T16:33:47;1.40;;;1.10;;
29814;SDS011;16708;50.426;7.664;2023-07-24T16:38:43;4.30;;;0.90;;
29814;SDS011;16708;50.426;7.664;2023-07-24T16:43:36;2.50;;;1.10;;
29814;SDS011;16708;50.426;7.664;2023-07-24T16:48:30;2.50;;;1.00;;
29814;SDS011;16708;50.426;7.664;2023-07-24T16:53:24;3.80;;;1.20;;
29814;SDS011;16708;50.426;7.664;2023-07-24T16:58:18;1.60;;;0.70;;
29814;SDS011;16708;50.426;7.664;2023-07-24T17:03:13;1.80;;;0.70;;
29814;SDS011;16708;50.426;7.664;2023-07-24T17:08:07;0.90;;;0.50;;
29814;SDS011;16708;50.426;7.664;2023-07-24T17:13:01;2.00;;;0.70;;
29814;SDS011;16708;50.426;7.664;2023-07-24T17:17:56;2.60;;;0.80;;
29814;SDS011;16708;50.426;7.664;2023-07-24T17:22:48;3.70;;;0.80;;
29814;SDS011;16708;50.426;7.664;2023-07-24T17:27:42;2.80;;;0.70;;
29814;SDS011;16708;50.426;7.664;2023-07-24T17:32:36;0.90;;;0.70;;
29814;SDS011;16708;50.426;7.664;2023-07-24T17:37:31;1.60;;;0.90;;
29814;SDS011;16708;50.426;7.664;2023-07-24T17:42:25;1.50;;;0.90;;
29814;SDS011;16708;50.426;7.664;2023-07-24T17:47:19;1.80;;;0.80;;
29814;SDS011;16708;50.426;7.664;2023-07-24T17:52:13;2.70;;;0.80;;
29814;SDS011;16708;50.426;7.664;2023-07-24T17:57:07;2.10;;;0.70;;
29814;SDS011;16708;50.426;7.664;2023-07-24T18:02:01;2.50;;;0.90;;
29814;SDS011;16708;50.426;7.664;2023-07-24T18:06:55;1.30;;;0.80;;
29814;SDS011;16708;50.426;7.664;2023-07-24T18:11:50;3.30;;;1.10;;
29814;SDS011;16708;50.426;7.664;2023-07-24T18:16:44;2.70;;;0.90;;
29814;SDS011;16708;50.426;7.664;2023-07-24T18:21:39;1.40;;;0.90;;
29814;SDS011;16708;50.426;7.664;2023-07-24T18:26:32;4.10;;;0.80;;
29814;SDS011;16708;50.426;7.664;2023-07-24T18:31:27;1.10;;;0.80;;
29814;SDS011;16708;50.426;7.664;2023-07-24T18:36:21;1.70;;;0.90;;
29814;SDS011;16708;50.426;7.664;2023-07-24T18:41:16;0.70;;;0.70;;
29814;SDS011;16708;50.426;7.664;2023-07-24T18:46:11;1.30;;;0.80;;
29814;SDS011;16708;50.426;7.664;2023-07-24T18:51:04;1.00;;;0.80;;
29814;SDS011;16708;50.426;7.664;2023-07-24T18:55:58;1.80;;;0.80;;
29814;SDS011;16708;50.426;7.664;2023-07-24T19:00:52;1.20;;;0.70;;
29814;SDS011;16708;50.426;7.664;2023-07-24T19:05:46;3.40;;;0.90;;
29814;SDS011;16708;50.426;7.664;2023-07-24T19:10:40;1.00;;;0.70;;
29814;SDS011;16708;50.426;7.664;2023-07-24T19:15:34;1.10;;;0.70;;
29814;SDS011;16708;50.426;7.664;2023-07-24T19:20:28;1.00;;;0.70;;
29814;SDS011;16708;50.426;7.664;2023-07-24T19:25:31;1.40;;;0.70;;
29814;SDS011;16708;50.426;7.664;2023-07-24T19:30:17;3.70;;;0.80;;
29814;SDS011;16708;50.426;7.664;2023-07-24T19:35:11;0.70;;;0.50;;
29814;SDS011;16708;50.426;7.664;2023-07-24T19:40:05;2.10;;;1.30;;
29814;SDS011;16708;50.426;7.664;2023-07-24T19:45:00;2.70;;;0.80;;
29814;SDS011;16708;50.426;7.664;2023-07-24T19:49:55;2.00;;;0.80;;
29814;SDS011;16708;50.426;7.664;2023-07-24T19:54:49;2.20;;;0.80;;
29814;SDS011;16708;50.426;7.664;2023-07-24T19:59:43;2.70;;;0.80;;
29814;SDS011;16708;50.426;7.664;2023-07-24T20:04:37;1.80;;;0.70;;
29814;SDS011;16708;50.426;7.664;2023-07-24T20:09:31;2.60;;;0.90;;
29814;SDS011;16708;50.426;7.664;2023-07-24T20:14:26;2.30;;;0.80;;
29814;SDS011;16708;50.426;7.664;2023-07-24T20:19:18;1.50;;;1.00;;
29814;SDS011;16708;50.426;7.664;2023-07-24T20:24:12;1.80;;;0.80;;
29814;SDS011;16708;50.426;7.664;2023-07-24T20:29:07;1.90;;;1.10;;
29814;SDS011;16708;50.426;7.664;2023-07-24T20:33:58;3.30;;;1.30;;
29814;SDS011;16708;50.426;7.664;2023-07-24T20:38:52;3.00;;;1.60;;
29814;SDS011;16708;50.426;7.664;2023-07-24T20:43:46;2.80;;;1.60;;
29814;SDS011;16708;50.426;7.664;2023-07-24T20:48:40;2.30;;;1.40;;
29814;SDS011;16708;50.426;7.664;2023-07-24T20:53:34;2.80;;;1.50;;
29814;SDS011;16708;50.426;7.664;2023-07-24T20:58:28;3.10;;;1.70;;
29814;SDS011;16708;50.426;7.664;2023-07-24T21:03:22;2.00;;;1.80;;
29814;SDS011;16708;50.426;7.664;2023-07-24T21:08:17;3.20;;;1.90;;
29814;SDS011;16708;50.426;7.664;2023-07-24T21:13:11;3.20;;;1.80;;
29814;SDS011;16708;50.426;7.664;2023-07-24T21:18:05;2.90;;;1.60;;
29814;SDS011;16708;50.426;7.664;2023-07-24T21:23:00;5.00;;;1.70;;
29814;SDS011;16708;50.426;7.664;2023-07-24T21:27:54;3.50;;;1.60;;
29814;SDS011;16708;50.426;7.664;2023-07-24T21:32:48;3.60;;;1.70;;
29814;SDS011;16708;50.426;7.664;2023-07-24T21:37:44;2.70;;;1.60;;
29814;SDS011;16708;50.426;7.664;2023-07-24T21:42:37;3.00;;;1.80;;
29814;SDS011;16708;50.426;7.664;2023-07-24T21:47:32;4.40;;;1.70;;
29814;SDS011;16708;50.426;7.664;2023-07-24T21:52:26;2.40;;;1.80;;
29814;SDS011;16708;50.426;7.664;2023-07-24T21:57:20;3.90;;;1.60;;
29814;SDS011;16708;50.426;7.664;2023-07-24T22:02:15;3.80;;;1.60;;
29814;SDS011;16708;50.426;7.664;2023-07-24T22:07:09;3.00;;;1.40;;
29814;SDS011;16708;50.426;7.664;2023-07-24T22:12:03;4.90;;;1.90;;
29814;SDS011;16708;50.426;7.664;2023-07-24T22:16:57;3.20;;;1.70;;
29814;SDS011;16708;50.426;7.664;2023-07-24T22:21:52;2.70;;;1.60;;
29814;SDS011;16708;50.426;7.664;2023-07-24T22:26:46;2.80;;;1.50;;
29814;SDS011;16708;50.426;7.664;2023-07-24T22:31:41;2.80;;;1.50;;
29814;SDS011;16708;50.426;7.664;2023-07-24T22:36:34;3.70;;;1.70;;
29814;SDS011;16708;50.426;7.664;2023-07-24T22:41:29;3.10;;;1.70;;
29814;SDS011;16708;50.426;7.664;2023-07-24T22:46:23;3.10;;;1.60;;
29814;SDS011;16708;50.426;7.664;2023-07-24T22:51:18;3.50;;;1.70;;
29814;SDS011;16708;50.426;7.664;2023-07-24T22:56:11;2.90;;;1.70;;
29814;SDS011;16708;50.426;7.664;2023-07-24T23:01:05;3.90;;;2.10;;
29814;SDS011;16708;50.426;7.664;2023-07-24T23:06:00;3.80;;;2.00;;
29814;SDS011;16708;50.426;7.664;2023-07-24T23:10:55;2.90;;;1.90;;
29814;SDS011;16708;50.426;7.664;2023-07-24T23:15:49;4.00;;;2.00;;
29814;SDS011;16708;50.426;7.664;2023-07-24T23:20:43;5.10;;;2.10;;
29814;SDS011;16708;50.426;7.664;2023-07-24T23:25:37;3.20;;;2.20;;
29814;SDS011;16708;50.426;7.664;2023-07-24T23:30:31;3.60;;;2.10;;
29814;SDS011;16708;50.426;7.664;2023-07-24T23:35:26;3.50;;;2.30;;
29814;SDS011;16708;50.426;7.664;2023-07-24T23:40:21;4.60;;;2.70;;
29814;SDS011;16708;50.426;7.664;2023-07-24T23:45:15;5.90;;;2.60;;
29814;SDS011;16708;50.426;7.664;2023-07-24T23:50:09;5.00;;;2.60;;
29814;SDS011;16708;50.426;7.664;2023-07-24T23:55:04;5.00;;;2.50;;
29814;SDS011;16708;50.426;7.664;2023-07-24T23:59:58;4.80;;;2.30;;
